Time;durP1;ratioP1;P1;durP2;ratioP2;P2;SDS_P1;SDS_P2;PMS_P1;PMS_P2;Temp;Humidity;BMP_temperature;BMP_pressure;BME280_temperature;BME280_humidity;BME280_pressure;Samples;Min_cycle;Max_cycle;Signal;HPM_P1;HPM_P2
2021/10/26 00:00:05;;;;;;;28.85;17.55;;;;;;;;;;5019052;28;20269;-72
2021/10/26 00:02:30;;;;;;;23.63;16.63;;;;;;;;;;5025377;28;20247;-71
2021/10/26 00:04:56;;;;;;;20.63;14.70;;;;;;;;;;5022252;28;20591;-72
2021/10/26 00:07:21;;;;;;;23.90;16.52;;;;;;;;;;5027609;28;20194;-71
2021/10/26 00:09:47;;;;;;;24.00;16.83;;;;;;;;;;5020957;28;20248;-73
2021/10/26 00:12:12;;;;;;;33.80;18.40;;;;;;;;;;5027509;28;20770;-72
2021/10/26 00:14:38;;;;;;;23.60;16.73;;;;;;;;;;5018815;28;20601;-72
2021/10/26 00:17:03;;;;;;;24.70;17.45;;;;;;;;;;5025522;28;20672;-71
2021/10/26 00:19:29;;;;;;;25.08;17.63;;;;;;;;;;5024235;28;20181;-71
2021/10/26 00:21:54;;;;;;;25.20;18.17;;;;;;;;;;5017468;28;20597;-72
2021/10/26 00:24:19;;;;;;;26.35;18.83;;;;;;;;;;5026466;28;20210;-71
2021/10/26 00:26:45;;;;;;;30.92;19.27;;;;;;;;;;5019614;28;20189;-71
2021/10/26 00:29:11;;;;;;;26.70;18.70;;;;;;;;;;5027765;28;20179;-72
2021/10/26 00:31:37;;;;;;;28.58;17.80;;;;;;;;;;5018424;28;20692;-71
2021/10/26 00:34:03;;;;;;;26.58;18.65;;;;;;;;;;5026505;28;20269;-72
2021/10/26 00:36:29;;;;;;;28.17;18.55;;;;;;;;;;5018257;28;20194;-73
2021/10/26 00:38:54;;;;;;;28.90;18.45;;;;;;;;;;5026392;28;20518;-71
2021/10/26 00:41:20;;;;;;;27.30;18.05;;;;;;;;;;5015114;28;20547;-71
2021/10/26 00:43:45;;;;;;;28.65;18.40;;;;;;;;;;5025559;28;20358;-73
2021/10/26 00:46:11;;;;;;;31.80;19.70;;;;;;;;;;5017439;28;23147;-73
2021/10/26 00:48:37;;;;;;;29.23;19.92;;;;;;;;;;5028174;28;20194;-72
2021/10/26 00:51:07;;;;;;;36.08;19.50;;;;;;;;;;5026687;28;20502;-71
2021/10/26 00:53:32;;;;;;;29.60;19.55;;;;;;;;;;5012017;28;20205;-72
2021/10/26 00:55:58;;;;;;;29.38;19.73;;;;;;;;;;5021648;28;20662;-71
2021/10/26 00:58:23;;;;;;;31.23;20.27;;;;;;;;;;5017114;28;20571;-72
2021/10/26 01:00:49;;;;;;;32.95;21.40;;;;;;;;;;5026170;28;20208;-71
2021/10/26 01:03:14;;;;;;;33.55;21.30;;;;;;;;;;5015456;28;20283;-72
2021/10/26 01:05:39;;;;;;;33.25;21.48;;;;;;;;;;5020976;28;20214;-73
2021/10/26 01:08:05;;;;;;;29.05;19.73;;;;;;;;;;5016512;28;20218;-74
2021/10/26 01:10:33;;;;;;;32.25;21.98;;;;;;;;;;5026682;28;20320;-72
2021/10/26 01:12:59;;;;;;;33.95;21.15;;;;;;;;;;5018108;28;20186;-72
2021/10/26 01:15:24;;;;;;;34.30;20.40;;;;;;;;;;5024587;28;20524;-73
2021/10/26 01:17:49;;;;;;;34.95;22.40;;;;;;;;;;5017347;28;20189;-72
2021/10/26 01:20:15;;;;;;;34.42;21.35;;;;;;;;;;5024377;28;20186;-71
2021/10/26 01:22:40;;;;;;;32.20;20.88;;;;;;;;;;5025538;28;20674;-72
2021/10/26 01:25:08;;;;;;;33.78;22.00;;;;;;;;;;5014127;28;20233;-71
2021/10/26 01:27:34;;;;;;;36.08;22.42;;;;;;;;;;5025485;28;20187;-72
2021/10/26 01:29:59;;;;;;;38.92;22.48;;;;;;;;;;5016737;28;20224;-71
2021/10/26 01:32:25;;;;;;;33.53;22.58;;;;;;;;;;5025606;28;20247;-70
2021/10/26 01:34:50;;;;;;;40.70;23.63;;;;;;;;;;5021245;28;20286;-70
2021/10/26 01:37:16;;;;;;;33.63;22.38;;;;;;;;;;5024768;28;20279;-71
2021/10/26 01:39:42;;;;;;;33.05;21.95;;;;;;;;;;5017931;28;20236;-70
2021/10/26 01:42:08;;;;;;;30.88;22.15;;;;;;;;;;5020181;28;20190;-71
2021/10/26 01:44:34;;;;;;;31.88;20.92;;;;;;;;;;5013715;28;20203;-71
2021/10/26 01:46:59;;;;;;;39.45;23.00;;;;;;;;;;5024805;28;20192;-72
2021/10/26 01:49:25;;;;;;;35.58;23.17;;;;;;;;;;5014714;28;20259;-71
2021/10/26 01:51:51;;;;;;;36.92;23.13;;;;;;;;;;5025472;28;20186;-73
2021/10/26 01:54:18;;;;;;;37.67;23.38;;;;;;;;;;5023942;28;20432;-72
2021/10/26 01:56:44;;;;;;;40.00;23.83;;;;;;;;;;5016136;28;20248;-72
2021/10/26 01:59:10;;;;;;;39.13;23.85;;;;;;;;;;5026800;28;20182;-72
2021/10/26 02:01:36;;;;;;;39.10;24.10;;;;;;;;;;5018463;28;20224;-72
2021/10/26 02:04:01;;;;;;;38.60;23.67;;;;;;;;;;5025440;28;20209;-73
2021/10/26 02:06:27;;;;;;;39.78;24.65;;;;;;;;;;5014292;28;20198;-72
2021/10/26 02:08:52;;;;;;;34.50;23.90;;;;;;;;;;5024866;28;20356;-72
2021/10/26 02:11:17;;;;;;;38.30;24.30;;;;;;;;;;5018971;28;20697;-72
2021/10/26 02:13:43;;;;;;;37.33;24.88;;;;;;;;;;5022927;28;20182;-72
2021/10/26 02:16:08;;;;;;;35.08;23.08;;;;;;;;;;5017899;28;20190;-73
2021/10/26 02:18:33;;;;;;;36.53;24.63;;;;;;;;;;5022110;28;20186;-71
2021/10/26 02:20:59;;;;;;;41.03;24.58;;;;;;;;;;5017702;28;20182;-70
2021/10/26 02:23:25;;;;;;;36.40;24.10;;;;;;;;;;5020707;28;20202;-71
2021/10/26 02:25:50;;;;;;;40.95;24.85;;;;;;;;;;5024493;28;20198;-71
2021/10/26 02:28:16;;;;;;;38.85;25.45;;;;;;;;;;5018415;28;20551;-72
2021/10/26 02:30:42;;;;;;;32.80;23.17;;;;;;;;;;5025170;28;20189;-71
2021/10/26 02:33:09;;;;;;;38.90;24.52;;;;;;;;;;5016464;28;20275;-73
2021/10/26 02:35:34;;;;;;;39.67;25.00;;;;;;;;;;5021050;28;20629;-72
2021/10/26 02:38:00;;;;;;;35.25;24.27;;;;;;;;;;5018514;28;20255;-73
2021/10/26 02:40:26;;;;;;;40.03;26.17;;;;;;;;;;5022014;28;20345;-72
2021/10/26 02:42:51;;;;;;;41.70;27.60;;;;;;;;;;5013753;28;20198;-70
2021/10/26 02:45:18;;;;;;;44.33;26.38;;;;;;;;;;5022665;28;20664;-72
2021/10/26 02:47:44;;;;;;;42.25;26.55;;;;;;;;;;5017093;28;20292;-73
2021/10/26 02:50:09;;;;;;;39.92;25.52;;;;;;;;;;5013950;28;20201;-72
2021/10/26 02:52:36;;;;;;;41.70;26.20;;;;;;;;;;5020279;28;20193;-73
2021/10/26 02:55:03;;;;;;;38.88;27.00;;;;;;;;;;5024459;28;20181;-72
2021/10/26 02:57:29;;;;;;;40.85;26.58;;;;;;;;;;5026134;28;20792;-72
2021/10/26 02:59:54;;;;;;;40.03;27.10;;;;;;;;;;5016549;28;21670;-72
2021/10/26 03:02:20;;;;;;;43.08;26.95;;;;;;;;;;5023335;28;20214;-72
2021/10/26 03:04:45;;;;;;;45.15;27.23;;;;;;;;;;5018715;28;20210;-73
2021/10/26 03:07:10;;;;;;;39.45;27.40;;;;;;;;;;5034040;28;20261;-73
2021/10/26 03:09:36;;;;;;;43.60;26.23;;;;;;;;;;5015342;28;20276;-72
2021/10/26 03:12:02;;;;;;;37.80;26.60;;;;;;;;;;5023351;28;20182;-73
2021/10/26 03:14:27;;;;;;;43.50;27.20;;;;;;;;;;5011177;28;20182;-73
2021/10/26 03:16:52;;;;;;;52.70;27.88;;;;;;;;;;5024655;28;20193;-72
2021/10/26 03:19:18;;;;;;;45.83;27.13;;;;;;;;;;5014067;28;20186;-73
2021/10/26 03:21:43;;;;;;;44.30;27.95;;;;;;;;;;5026287;28;20210;-72
2021/10/26 03:24:09;;;;;;;43.90;27.85;;;;;;;;;;5020798;28;20293;-72
2021/10/26 03:26:34;;;;;;;43.38;27.40;;;;;;;;;;5016458;28;20175;-72
2021/10/26 03:29:00;;;;;;;47.20;28.33;;;;;;;;;;5024438;28;20186;-72
2021/10/26 03:31:25;;;;;;;38.63;25.35;;;;;;;;;;5015684;28;20200;-72
2021/10/26 03:33:51;;;;;;;40.90;26.38;;;;;;;;;;5024555;28;20201;-74
2021/10/26 03:36:17;;;;;;;45.67;28.10;;;;;;;;;;5012957;28;20200;-74
2021/10/26 03:38:43;;;;;;;44.25;27.80;;;;;;;;;;5025943;28;20244;-72
2021/10/26 03:41:08;;;;;;;38.55;25.10;;;;;;;;;;5011865;28;20190;-73
2021/10/26 03:43:34;;;;;;;42.90;28.42;;;;;;;;;;5026835;28;20300;-72
2021/10/26 03:45:59;;;;;;;41.47;26.08;;;;;;;;;;5015647;28;20194;-73
2021/10/26 03:48:25;;;;;;;41.38;25.70;;;;;;;;;;5024115;28;20206;-73
2021/10/26 03:50:50;;;;;;;42.78;26.75;;;;;;;;;;5016818;28;20674;-73
2021/10/26 03:53:16;;;;;;;48.28;28.98;;;;;;;;;;5018265;28;20522;-73
2021/10/26 03:55:41;;;;;;;47.42;29.05;;;;;;;;;;5015927;28;20240;-72
2021/10/26 03:58:08;;;;;;;46.10;29.55;;;;;;;;;;5019543;28;20202;-73
2021/10/26 04:00:34;;;;;;;47.92;30.02;;;;;;;;;;5022819;28;20179;-72
2021/10/26 04:03:00;;;;;;;55.78;30.27;;;;;;;;;;5011897;28;20205;-73
2021/10/26 04:08:26;;;;;;;50.22;29.98;;;;;;;;;;5018017;28;20193;-72
2021/10/26 04:10:54;;;;;;;55.20;32.30;;;;;;;;;;5022517;28;20221;-72
2021/10/26 04:13:21;;;;;;;55.55;30.13;;;;;;;;;;5012604;28;20186;-72
2021/10/26 04:15:48;;;;;;;54.03;30.73;;;;;;;;;;5023558;28;20725;-72
2021/10/26 04:18:13;;;;;;;51.67;30.35;;;;;;;;;;5015353;28;20332;-72
2021/10/26 04:20:39;;;;;;;51.83;31.40;;;;;;;;;;5024589;28;20281;-73
2021/10/26 04:23:04;;;;;;;52.53;31.55;;;;;;;;;;5017608;28;20201;-72
2021/10/26 04:25:32;;;;;;;47.25;30.08;;;;;;;;;;5026648;28;20332;-71
2021/10/26 04:27:58;;;;;;;52.03;31.00;;;;;;;;;;5016594;28;20443;-73
2021/10/26 04:30:23;;;;;;;54.05;32.55;;;;;;;;;;5028847;28;20272;-71
2021/10/26 04:32:48;;;;;;;55.97;31.23;;;;;;;;;;5019684;28;20178;-71
2021/10/26 04:35:14;;;;;;;54.63;31.45;;;;;;;;;;5028197;28;20182;-71
2021/10/26 04:37:40;;;;;;;53.95;30.88;;;;;;;;;;5026514;28;20202;-73
2021/10/26 04:40:06;;;;;;;56.53;32.63;;;;;;;;;;5016986;28;20234;-71
2021/10/26 04:42:32;;;;;;;53.60;30.80;;;;;;;;;;5026343;28;20194;-73
2021/10/26 04:44:59;;;;;;;55.35;31.40;;;;;;;;;;5018362;28;20691;-72
2021/10/26 04:47:26;;;;;;;52.22;31.48;;;;;;;;;;5027286;28;20208;-72
2021/10/26 04:49:52;;;;;;;54.47;32.75;;;;;;;;;;5017167;28;21023;-73
2021/10/26 04:52:17;;;;;;;53.72;31.90;;;;;;;;;;5022694;28;20276;-72
2021/10/26 04:54:42;;;;;;;53.00;30.80;;;;;;;;;;5017447;28;20186;-72
2021/10/26 04:57:08;;;;;;;54.75;31.90;;;;;;;;;;5020203;28;20218;-72
2021/10/26 04:59:33;;;;;;;58.08;33.90;;;;;;;;;;5015522;28;20197;-73
2021/10/26 05:01:59;;;;;;;52.50;33.38;;;;;;;;;;5024367;28;20205;-72
2021/10/26 05:04:24;;;;;;;60.55;32.78;;;;;;;;;;5015196;28;20216;-73
2021/10/26 05:06:49;;;;;;;62.92;33.78;;;;;;;;;;5027296;28;20205;-71
2021/10/26 05:09:15;;;;;;;56.85;32.92;;;;;;;;;;5023752;28;20525;-72
2021/10/26 05:11:41;;;;;;;53.97;33.35;;;;;;;;;;5015686;28;20182;-72
2021/10/26 05:14:06;;;;;;;59.88;32.88;;;;;;;;;;5026291;28;20174;-72
2021/10/26 05:16:32;;;;;;;59.30;34.22;;;;;;;;;;5013305;28;20634;-71
2021/10/26 05:19:01;;;;;;;62.92;34.53;;;;;;;;;;5024323;28;20186;-72
2021/10/26 05:21:26;;;;;;;59.70;34.80;;;;;;;;;;5017035;28;20256;-72
2021/10/26 05:23:52;;;;;;;59.63;35.85;;;;;;;;;;5025622;28;20256;-71
2021/10/26 05:26:18;;;;;;;55.03;33.08;;;;;;;;;;5020294;28;20697;-71
2021/10/26 05:28:45;;;;;;;65.38;36.00;;;;;;;;;;5025514;28;20178;-73
2021/10/26 05:31:10;;;;;;;57.97;34.22;;;;;;;;;;5017466;28;20178;-71
2021/10/26 05:33:38;;;;;;;56.35;33.97;;;;;;;;;;5026459;28;20190;-71
2021/10/26 05:36:04;;;;;;;62.20;35.55;;;;;;;;;;5018242;28;20185;-74
2021/10/26 05:38:30;;;;;;;62.47;35.13;;;;;;;;;;5024606;28;20236;-71
2021/10/26 05:40:56;;;;;;;57.28;34.40;;;;;;;;;;5027261;28;20209;-71
2021/10/26 05:43:22;;;;;;;61.00;35.78;;;;;;;;;;5015829;28;20186;-71
2021/10/26 05:45:47;;;;;;;56.28;34.05;;;;;;;;;;5026853;28;20619;-71
2021/10/26 05:48:14;;;;;;;61.47;34.75;;;;;;;;;;5017589;28;20185;-71
2021/10/26 05:50:40;;;;;;;57.65;32.60;;;;;;;;;;5025009;28;20197;-71
2021/10/26 05:53:05;;;;;;;63.35;33.78;;;;;;;;;;5018503;28;20505;-72
2021/10/26 05:55:31;;;;;;;58.67;33.58;;;;;;;;;;5027899;28;20217;-72
2021/10/26 05:57:56;;;;;;;56.88;33.85;;;;;;;;;;4319197;28;10000736;-71
2021/10/26 06:00:25;;;;;;;57.67;34.15;;;;;;;;;;5020908;28;20472;-70
2021/10/26 06:02:50;;;;;;;56.72;32.42;;;;;;;;;;5013434;28;20198;-71
2021/10/26 06:05:16;;;;;;;56.22;34.53;;;;;;;;;;5022694;28;20214;-73
2021/10/26 06:07:41;;;;;;;56.22;33.72;;;;;;;;;;5012764;28;20265;-72
2021/10/26 06:10:08;;;;;;;61.78;33.38;;;;;;;;;;5023065;28;20225;-71
2021/10/26 06:12:36;;;;;;;52.72;32.35;;;;;;;;;;5023156;28;20194;-71
2021/10/26 06:15:01;;;;;;;62.05;34.67;;;;;;;;;;5017960;28;20182;-74
2021/10/26 06:17:28;;;;;;;58.85;33.00;;;;;;;;;;5023875;28;20190;-70
2021/10/26 06:19:53;;;;;;;54.88;31.50;;;;;;;;;;5016996;28;20204;-70
2021/10/26 06:22:18;;;;;;;55.42;32.33;;;;;;;;;;5025160;28;20579;-70
2021/10/26 06:24:46;;;;;;;55.00;31.85;;;;;;;;;;4999671;28;20561;-70
2021/10/26 06:27:11;;;;;;;53.28;31.92;;;;;;;;;;5021534;28;20190;-70
2021/10/26 06:29:36;;;;;;;52.33;32.58;;;;;;;;;;5013220;28;20190;-71
2021/10/26 06:32:02;;;;;;;68.53;35.45;;;;;;;;;;5027755;28;20600;-71
2021/10/26 06:34:27;;;;;;;61.63;33.75;;;;;;;;;;5016332;28;20609;-72
2021/10/26 06:36:53;;;;;;;60.10;34.13;;;;;;;;;;5027500;28;20197;-71
2021/10/26 06:39:21;;;;;;;72.90;33.70;;;;;;;;;;5012364;28;20486;-71
2021/10/26 06:41:47;;;;;;;58.35;34.65;;;;;;;;;;5028017;28;20671;-71
2021/10/26 06:44:13;;;;;;;60.30;35.20;;;;;;;;;;5025092;28;20669;-71
2021/10/26 06:46:38;;;;;;;64.25;35.13;;;;;;;;;;5016262;28;20188;-71
2021/10/26 06:49:04;;;;;;;61.72;33.22;;;;;;;;;;5023505;28;20189;-71
2021/10/26 06:51:30;;;;;;;60.38;34.08;;;;;;;;;;5014707;28;20217;-73
2021/10/26 06:53:55;;;;;;;68.43;33.72;;;;;;;;;;5020730;28;20222;-71
2021/10/26 06:56:22;;;;;;;57.75;32.03;;;;;;;;;;5015404;28;20264;-71
2021/10/26 06:58:47;;;;;;;57.85;32.55;;;;;;;;;;5024679;28;20567;-70
2021/10/26 07:01:12;;;;;;;62.83;35.05;;;;;;;;;;5016067;28;20229;-71
2021/10/26 07:03:40;;;;;;;63.65;34.92;;;;;;;;;;5024096;28;20300;-70
2021/10/26 07:06:05;;;;;;;56.58;31.75;;;;;;;;;;5015994;28;20190;-71
2021/10/26 07:08:31;;;;;;;61.08;33.05;;;;;;;;;;5025652;28;20292;-70
2021/10/26 07:10:57;;;;;;;62.50;32.85;;;;;;;;;;5007529;28;20196;-71
2021/10/26 07:13:23;;;;;;;64.80;33.42;;;;;;;;;;5025226;28;20183;-71
2021/10/26 07:15:49;;;;;;;56.03;31.17;;;;;;;;;;5025495;28;20240;-70
2021/10/26 07:18:14;;;;;;;54.42;31.33;;;;;;;;;;5016287;28;20653;-72
2021/10/26 07:20:40;;;;;;;64.63;33.53;;;;;;;;;;5027694;28;20257;-72
2021/10/26 07:23:05;;;;;;;56.25;28.90;;;;;;;;;;5017613;28;20280;-73
2021/10/26 07:25:30;;;;;;;53.40;29.90;;;;;;;;;;5026478;28;20285;-71
2021/10/26 07:27:59;;;;;;;52.38;28.95;;;;;;;;;;5016533;28;20284;-73
2021/10/26 07:30:32;;;;;;;51.75;29.88;;;;;;;;;;5024565;28;20206;-70
2021/10/26 07:33:02;;;;;;;53.50;29.38;;;;;;;;;;5011531;28;20210;-70
2021/10/26 07:35:34;;;;;;;52.75;29.83;;;;;;;;;;5019928;28;20706;-72
2021/10/26 07:38:00;;;;;;;50.00;29.30;;;;;;;;;;5015840;28;20664;-74
2021/10/26 07:40:25;;;;;;;47.75;27.42;;;;;;;;;;5023032;28;20209;-72
2021/10/26 07:42:51;;;;;;;47.10;26.75;;;;;;;;;;5016956;28;20187;-71
2021/10/26 07:45:16;;;;;;;47.45;26.10;;;;;;;;;;5025359;28;20248;-70
2021/10/26 07:47:41;;;;;;;52.58;26.38;;;;;;;;;;5016213;28;22159;-73
2021/10/26 07:50:08;;;;;;;47.13;27.92;;;;;;;;;;5025871;28;20193;-71
2021/10/26 07:52:35;;;;;;;50.05;28.25;;;;;;;;;;5026146;28;20245;-71
2021/10/26 07:55:02;;;;;;;51.10;28.40;;;;;;;;;;5019643;28;20229;-71
2021/10/26 07:57:28;;;;;;;50.97;28.15;;;;;;;;;;5029098;28;20206;-70
2021/10/26 07:59:54;;;;;;;50.67;26.98;;;;;;;;;;5020331;28;20189;-71
2021/10/26 08:02:20;;;;;;;54.20;28.73;;;;;;;;;;5029579;28;21257;-72
2021/10/26 08:04:46;;;;;;;47.97;27.90;;;;;;;;;;5022729;28;20255;-73
2021/10/26 08:07:16;;;;;;;54.35;27.27;;;;;;;;;;5025418;28;20194;-72
2021/10/26 08:09:44;;;;;;;51.40;27.77;;;;;;;;;;5021759;28;20226;-73
2021/10/26 08:12:09;;;;;;;45.03;27.13;;;;;;;;;;5027837;28;20190;-72
2021/10/26 08:14:35;;;;;;;48.50;25.50;;;;;;;;;;5020540;28;20178;-72
2021/10/26 08:17:00;;;;;;;54.00;26.92;;;;;;;;;;5030539;28;20177;-73
2021/10/26 08:19:26;;;;;;;45.63;25.15;;;;;;;;;;5023393;28;20653;-73
2021/10/26 08:21:51;;;;;;;47.22;24.80;;;;;;;;;;5027736;28;20194;-72
2021/10/26 08:24:22;;;;;;;38.60;23.80;;;;;;;;;;5022970;28;20665;-72
2021/10/26 08:26:57;;;;;;;45.55;23.95;;;;;;;;;;5028304;28;20637;-73
2021/10/26 08:37:11;;;;;;;44.70;25.23;;;;;;;;;;5022845;28;20650;-70
2021/10/26 08:39:42;;;;;;;46.95;23.73;;;;;;;;;;5028910;28;20257;-73
2021/10/26 08:42:19;;;;;;;40.67;21.45;;;;;;;;;;5021589;28;20290;-73
2021/10/26 08:44:45;;;;;;;38.28;21.75;;;;;;;;;;5030003;28;20217;-71
2021/10/26 08:47:12;;;;;;;39.67;22.48;;;;;;;;;;5020811;28;20186;-70
2021/10/26 08:49:37;;;;;;;40.42;23.05;;;;;;;;;;5027252;28;20201;-71
2021/10/26 08:52:06;;;;;;;42.65;22.35;;;;;;;;;;5014740;28;20189;-72
2021/10/26 08:54:32;;;;;;;40.60;22.52;;;;;;;;;;5025883;28;20264;-72
2021/10/26 08:56:59;;;;;;;43.38;24.42;;;;;;;;;;5018594;28;20210;-71
2021/10/26 08:59:24;;;;;;;43.53;23.92;;;;;;;;;;5026107;28;20205;-73
2021/10/26 09:01:52;;;;;;;41.55;22.70;;;;;;;;;;5019883;28;20550;-71
2021/10/26 09:04:18;;;;;;;42.00;22.60;;;;;;;;;;5028002;28;20202;-74
2021/10/26 09:06:46;;;;;;;39.72;21.45;;;;;;;;;;5018452;28;20220;-73
2021/10/26 09:09:19;;;;;;;39.80;23.00;;;;;;;;;;5027085;28;20230;-70
2021/10/26 09:17:26;;;;;;;42.20;20.95;;;;;;;;;;5017044;28;20233;-72
2021/10/26 09:19:55;;;;;;;38.47;20.35;;;;;;;;;;5031162;28;20181;-70
2021/10/26 09:22:21;;;;;;;36.47;20.15;;;;;;;;;;5016929;28;20191;-71
2021/10/26 09:25:03;;;;;;;36.53;20.63;;;;;;;;;;5029459;28;20285;-70
2021/10/26 09:27:30;;;;;;;44.35;20.50;;;;;;;;;;5016073;28;20198;-72
2021/10/26 09:30:03;;;;;;;37.42;19.10;;;;;;;;;;5024097;28;20182;-70
2021/10/26 09:32:40;;;;;;;31.88;19.15;;;;;;;;;;5025837;28;20526;-72
2021/10/26 09:35:12;;;;;;;45.58;19.80;;;;;;;;;;5020782;28;20268;-71
2021/10/26 09:37:46;;;;;;;36.35;20.45;;;;;;;;;;5028129;28;20186;-71
2021/10/26 09:40:13;;;;;;;39.30;19.75;;;;;;;;;;5019580;28;20208;-72
2021/10/26 09:42:42;;;;;;;32.63;18.23;;;;;;;;;;5025513;28;20339;-72
2021/10/26 09:45:11;;;;;;;28.10;17.65;;;;;;;;;;5017541;28;20244;-74
2021/10/26 09:47:38;;;;;;;34.60;18.80;;;;;;;;;;5025449;28;20236;-74
2021/10/26 09:50:07;;;;;;;31.17;18.38;;;;;;;;;;5014289;28;20193;-72
2021/10/26 09:52:43;;;;;;;34.70;18.27;;;;;;;;;;5026444;28;20490;-72
2021/10/26 09:55:25;;;;;;;38.95;18.60;;;;;;;;;;5015310;28;20805;-70
2021/10/26 09:57:57;;;;;;;33.65;17.63;;;;;;;;;;5026780;28;20670;-72
2021/10/26 10:00:27;;;;;;;29.92;17.52;;;;;;;;;;5016992;28;20186;-73
2021/10/26 10:03:05;;;;;;;35.78;17.23;;;;;;;;;;5027468;28;20205;-73
2021/10/26 10:05:35;;;;;;;35.40;16.80;;;;;;;;;;5018438;28;20224;-70
2021/10/26 10:08:21;;;;;;;30.73;16.25;;;;;;;;;;5020158;28;20175;-73
2021/10/26 10:10:47;;;;;;;30.13;16.75;;;;;;;;;;5019536;28;20190;-75
2021/10/26 10:13:13;;;;;;;29.50;16.73;;;;;;;;;;5027230;28;20614;-72
2021/10/26 10:15:43;;;;;;;31.65;18.05;;;;;;;;;;5014489;28;20178;-73
2021/10/26 10:18:10;;;;;;;32.30;18.25;;;;;;;;;;5023912;28;21612;-72
2021/10/26 10:20:36;;;;;;;28.90;16.20;;;;;;;;;;5017904;28;20186;-72
2021/10/26 10:23:02;;;;;;;29.95;16.33;;;;;;;;;;5027894;28;20200;-73
2021/10/26 10:25:29;;;;;;;28.30;15.82;;;;;;;;;;5019153;28;20324;-69
2021/10/26 10:27:56;;;;;;;27.80;15.90;;;;;;;;;;5024304;28;20185;-72
2021/10/26 10:30:21;;;;;;;29.35;15.10;;;;;;;;;;5023641;28;20190;-73
2021/10/26 10:32:46;;;;;;;25.48;15.63;;;;;;;;;;5018535;28;20208;-71
2021/10/26 10:35:13;;;;;;;27.20;15.13;;;;;;;;;;5024441;28;20190;-73
2021/10/26 10:37:41;;;;;;;24.05;13.75;;;;;;;;;;5016258;28;20189;-72
2021/10/26 10:40:07;;;;;;;28.60;15.02;;;;;;;;;;5025440;28;20193;-71
2021/10/26 10:42:43;;;;;;;28.42;14.55;;;;;;;;;;5020049;28;20196;-72
2021/10/26 10:45:24;;;;;;;26.23;14.32;;;;;;;;;;5023301;28;20201;-71
2021/10/26 10:47:50;;;;;;;25.30;13.88;;;;;;;;;;5018869;28;20664;-73
2021/10/26 10:50:37;;;;;;;24.67;14.25;;;;;;;;;;5026294;28;20259;-73
2021/10/26 10:53:06;;;;;;;26.40;12.93;;;;;;;;;;5019149;28;20182;-72
2021/10/26 10:55:32;;;;;;;21.35;12.80;;;;;;;;;;5026384;28;20173;-72
2021/10/26 10:58:24;;;;;;;23.55;12.45;;;;;;;;;;5019493;28;20202;-75
2021/10/26 11:00:50;;;;;;;24.40;12.77;;;;;;;;;;5026069;28;20197;-74
2021/10/26 11:03:29;;;;;;;24.10;13.23;;;;;;;;;;5017963;28;20182;-71
2021/10/26 11:05:55;;;;;;;21.30;13.48;;;;;;;;;;5026399;28;20193;-74
2021/10/26 11:08:39;;;;;;;21.52;13.80;;;;;;;;;;5016033;28;20216;-73
2021/10/26 11:11:05;;;;;;;25.20;13.30;;;;;;;;;;5026801;28;20308;-72
2021/10/26 11:13:32;;;;;;;23.17;13.25;;;;;;;;;;5016944;28;20190;-71
2021/10/26 11:16:00;;;;;;;24.63;13.13;;;;;;;;;;5026743;28;20182;-73
2021/10/26 11:18:44;;;;;;;26.50;13.75;;;;;;;;;;5017653;28;20189;-73
2021/10/26 11:21:21;;;;;;;24.50;14.35;;;;;;;;;;5024397;28;20186;-73
2021/10/26 11:23:48;;;;;;;21.10;13.82;;;;;;;;;;5014003;28;20688;-72
2021/10/26 11:26:15;;;;;;;24.85;14.52;;;;;;;;;;5025293;28;20212;-72
2021/10/26 11:28:47;;;;;;;25.70;14.70;;;;;;;;;;5014440;28;20190;-73
2021/10/26 11:31:16;;;;;;;27.58;16.15;;;;;;;;;;5020958;28;20182;-70
2021/10/26 11:33:51;;;;;;;31.23;16.25;;;;;;;;;;5012398;28;20217;-72
2021/10/26 11:36:17;;;;;;;29.13;16.38;;;;;;;;;;5022531;28;20177;-73
2021/10/26 11:38:48;;;;;;;26.95;16.13;;;;;;;;;;5023878;28;20689;-72
2021/10/26 11:41:17;;;;;;;23.48;13.52;;;;;;;;;;5018710;28;20186;-73
2021/10/26 11:44:00;;;;;;;25.17;14.93;;;;;;;;;;5024555;28;20201;-73
2021/10/26 11:46:32;;;;;;;25.92;14.07;;;;;;;;;;5016910;28;20592;-73
2021/10/26 11:49:04;;;;;;;26.92;14.98;;;;;;;;;;5025351;28;20188;-72
2021/10/26 11:51:35;;;;;;;24.05;14.50;;;;;;;;;;5014926;28;20195;-69
2021/10/26 11:54:07;;;;;;;27.55;14.95;;;;;;;;;;5024582;28;20186;-73
2021/10/26 11:56:34;;;;;;;27.42;15.32;;;;;;;;;;5012789;28;20638;-72
2021/10/26 11:59:11;;;;;;;28.02;14.93;;;;;;;;;;5023162;28;20182;-74
2021/10/26 12:01:50;;;;;;;26.77;14.23;;;;;;;;;;5017606;28;20249;-72
2021/10/26 12:04:21;;;;;;;25.55;14.52;;;;;;;;;;5024427;28;20244;-73
2021/10/26 12:06:49;;;;;;;21.13;12.90;;;;;;;;;;5015856;28;20233;-72
2021/10/26 12:09:16;;;;;;;23.58;13.40;;;;;;;;;;5023498;28;20311;-70
2021/10/26 12:11:45;;;;;;;22.80;13.63;;;;;;;;;;5014467;28;20190;-72
2021/10/26 12:14:16;;;;;;;24.10;14.68;;;;;;;;;;5022041;28;20179;-71
2021/10/26 12:17:04;;;;;;;28.85;15.23;;;;;;;;;;5015583;28;20198;-72
2021/10/26 12:19:31;;;;;;;29.00;14.18;;;;;;;;;;5022954;28;20190;-72
2021/10/26 12:21:57;;;;;;;26.30;14.15;;;;;;;;;;5014465;28;20252;-72
2021/10/26 12:24:28;;;;;;;27.52;14.45;;;;;;;;;;5023609;28;21797;-73
2021/10/26 12:27:11;;;;;;;26.48;14.07;;;;;;;;;;5014647;28;20202;-71
2021/10/26 12:29:43;;;;;;;23.20;14.23;;;;;;;;;;5019368;28;20186;-72
2021/10/26 12:32:12;;;;;;;27.95;13.35;;;;;;;;;;5016744;28;20194;-72
2021/10/26 12:34:43;;;;;;;24.40;14.02;;;;;;;;;;5024571;28;20581;-73
2021/10/26 12:37:36;;;;;;;31.63;15.32;;;;;;;;;;5015027;28;20258;-72
2021/10/26 12:40:10;;;;;;;28.45;14.98;;;;;;;;;;5025034;28;20179;-72
2021/10/26 12:42:38;;;;;;;30.92;15.38;;;;;;;;;;5021322;28;20776;-73
2021/10/26 12:45:07;;;;;;;25.23;14.25;;;;;;;;;;5025974;28;20214;-71
2021/10/26 12:47:52;;;;;;;25.80;14.52;;;;;;;;;;5016399;28;22446;-71
2021/10/26 12:50:26;;;;;;;21.73;13.50;;;;;;;;;;5028693;28;20244;-71
2021/10/26 12:53:40;;;;;;;23.70;13.30;;;;;;;;;;5019717;28;20185;-70
2021/10/26 12:56:27;;;;;;;24.13;12.80;;;;;;;;;;5009254;28;20283;-71
2021/10/26 12:58:53;;;;;;;21.38;12.13;;;;;;;;;;5011970;28;20735;-70
2021/10/26 13:01:19;;;;;;;21.50;12.73;;;;;;;;;;5023263;28;20186;-71
2021/10/26 13:04:01;;;;;;;23.90;12.57;;;;;;;;;;5020165;28;20206;-71
2021/10/26 13:06:32;;;;;;;23.67;12.45;;;;;;;;;;5025742;28;20214;-70
2021/10/26 13:09:08;;;;;;;23.30;12.13;;;;;;;;;;5021320;28;20241;-70
2021/10/26 13:11:40;;;;;;;22.60;12.10;;;;;;;;;;5029031;28;20228;-71
2021/10/26 13:14:14;;;;;;;25.95;14.75;;;;;;;;;;5021759;28;20181;-71
2021/10/26 13:16:46;;;;;;;27.08;15.43;;;;;;;;;;5028265;28;20185;-70
2021/10/26 13:19:29;;;;;;;28.25;14.27;;;;;;;;;;5017848;28;26079;-71
2021/10/26 13:22:11;;;;;;;26.65;14.73;;;;;;;;;;5027650;28;20193;-71
2021/10/26 13:24:41;;;;;;;28.88;15.82;;;;;;;;;;5018078;28;20561;-71
2021/10/26 13:27:11;;;;;;;28.40;15.32;;;;;;;;;;5025637;28;20612;-71
2021/10/26 13:29:40;;;;;;;27.23;14.20;;;;;;;;;;5018875;28;26557;-72
2021/10/26 13:32:07;;;;;;;28.92;14.77;;;;;;;;;;5025734;28;20614;-71
2021/10/26 13:34:33;;;;;;;21.76;10.60;;;;;;;;;;4331860;28;10021594;-71
2021/10/26 13:36:59;;;;;;;29.85;15.90;;;;;;;;;;5020666;28;20274;-71
2021/10/26 13:39:24;;;;;;;23.55;15.07;;;;;;;;;;5020695;28;20170;-72
2021/10/26 13:41:55;;;;;;;28.20;15.25;;;;;;;;;;5015337;28;20662;-70
2021/10/26 13:44:21;;;;;;;25.38;14.55;;;;;;;;;;5024077;28;20208;-71
2021/10/26 13:46:46;;;;;;;27.85;15.30;;;;;;;;;;5016814;28;20189;-71
2021/10/26 13:49:12;;;;;;;30.23;15.02;;;;;;;;;;5022008;28;20576;-70
2021/10/26 13:51:37;;;;;;;25.38;14.70;;;;;;;;;;5015518;28;20653;-71
2021/10/26 13:54:04;;;;;;;30.83;14.95;;;;;;;;;;5022785;28;20193;-71
2021/10/26 13:56:29;;;;;;;21.67;13.88;;;;;;;;;;5016051;28;20208;-72
2021/10/26 13:58:55;;;;;;;25.48;14.80;;;;;;;;;;5024130;28;20170;-72
2021/10/26 14:01:20;;;;;;;25.00;14.23;;;;;;;;;;5013374;28;20230;-71
2021/10/26 14:03:48;;;;;;;25.83;13.82;;;;;;;;;;5020565;28;20301;-72
2021/10/26 14:06:13;;;;;;;24.10;13.65;;;;;;;;;;5013484;28;20198;-71
2021/10/26 14:08:40;;;;;;;25.27;13.65;;;;;;;;;;5021795;28;20237;-69
2021/10/26 14:11:07;;;;;;;22.92;12.35;;;;;;;;;;5023314;28;20202;-73
2021/10/26 14:13:36;;;;;;;24.58;11.98;;;;;;;;;;5015163;28;20213;-72
2021/10/26 14:16:02;;;;;;;21.55;12.45;;;;;;;;;;5020764;28;20198;-73
2021/10/26 14:18:27;;;;;;;21.75;12.20;;;;;;;;;;5010528;28;20579;-73
2021/10/26 14:20:57;;;;;;;17.77;11.05;;;;;;;;;;5022428;28;20190;-72
2021/10/26 14:23:22;;;;;;;22.92;12.15;;;;;;;;;;5008635;28;20657;-72
2021/10/26 14:25:50;;;;;;;19.30;10.93;;;;;;;;;;5018065;28;20210;-70
2021/10/26 14:28:16;;;;;;;20.38;11.07;;;;;;;;;;5012925;28;20193;-72
2021/10/26 14:30:42;;;;;;;19.98;10.55;;;;;;;;;;5016585;28;20630;-72
2021/10/26 14:33:08;;;;;;;20.52;10.63;;;;;;;;;;5009418;28;20204;-72
2021/10/26 14:35:38;;;;;;;21.02;10.75;;;;;;;;;;5016744;28;20628;-72